createdAt,value
2019-02-21T00:00:30.444Z,16.77
2019-02-21T00:03:03.023Z,14.10
2019-02-21T00:05:35.553Z,14.27
2019-02-21T00:08:11.095Z,14.97
2019-02-21T00:10:44.484Z,15.63
2019-02-21T00:13:19.840Z,15.77
2019-02-21T00:15:53.735Z,14.57
2019-02-21T00:18:26.446Z,14.97
2019-02-21T00:21:00.238Z,15.20
2019-02-21T00:23:33.083Z,15.53
2019-02-21T00:26:05.660Z,14.10
2019-02-21T00:28:38.575Z,14.17
2019-02-21T00:31:12.063Z,15.10
2019-02-21T00:33:44.811Z,15.60
2019-02-21T00:36:17.731Z,16.17
2019-02-21T00:38:50.327Z,14.60
2019-02-21T00:41:22.926Z,15.33
2019-02-21T00:43:55.835Z,15.20
2019-02-21T00:46:29.431Z,14.80
2019-02-21T00:49:02.311Z,15.03
2019-02-21T00:51:36.317Z,14.57
2019-02-21T00:54:10.446Z,16.25
2019-02-21T00:56:43.870Z,14.90
2019-02-21T00:59:16.889Z,15.47
2019-02-21T01:01:49.416Z,15.00
2019-02-21T01:04:24.313Z,14.87
2019-02-21T01:06:57.438Z,15.13
2019-02-21T01:09:30.512Z,16.50
2019-02-21T01:12:03.030Z,13.77
2019-02-21T01:14:35.939Z,14.27
2019-02-21T01:17:08.791Z,15.68
2019-02-21T01:19:41.789Z,15.45
2019-02-21T01:22:15.418Z,14.80
2019-02-21T01:24:48.097Z,15.07
2019-02-21T01:27:20.677Z,14.53
2019-02-21T01:29:53.822Z,14.23
2019-02-21T01:32:26.370Z,14.20
2019-02-21T01:34:59.282Z,15.10
2019-02-21T01:37:33.323Z,14.83
2019-02-21T01:40:06.424Z,15.33
2019-02-21T01:42:38.928Z,16.67
2019-02-21T01:45:14.826Z,16.43
2019-02-21T01:47:47.498Z,17.17
2019-02-21T01:50:20.377Z,15.97
2019-02-21T01:52:53.227Z,16.67
2019-02-21T01:55:25.790Z,16.43
2019-02-21T01:57:58.335Z,17.57
2019-02-21T02:00:32.459Z,16.83
2019-02-21T02:03:05.411Z,16.80
2019-02-21T02:05:37.877Z,16.60
2019-02-21T02:08:11.325Z,16.65
2019-02-21T02:10:44.205Z,16.50
2019-02-21T02:13:24.017Z,16.53
2019-02-21T02:15:58.546Z,16.60
2019-02-21T02:18:31.039Z,16.13
2019-02-21T02:21:04.487Z,16.13
2019-02-21T02:23:37.446Z,17.97
2019-02-21T02:26:10.151Z,17.23
2019-02-21T02:28:43.808Z,17.20
2019-02-21T02:31:22.785Z,18.08
2019-02-21T02:33:56.375Z,16.93
2019-02-21T02:36:29.709Z,16.93
2019-02-21T02:39:04.802Z,16.50
2019-02-21T02:41:37.358Z,16.70
2019-02-21T02:44:10.976Z,17.23
2019-02-21T02:46:44.618Z,17.47
2019-02-21T02:49:17.163Z,18.33
2019-02-21T02:51:49.739Z,16.60
2019-02-21T02:54:24.291Z,16.03
2019-02-21T02:56:58.612Z,15.97
2019-02-21T02:59:40.312Z,16.30
2019-02-21T03:02:14.446Z,16.17
2019-02-21T03:04:47.004Z,16.33
2019-02-21T03:07:20.670Z,15.70
2019-02-21T03:09:56.868Z,15.23
2019-02-21T03:12:30.507Z,17.70
2019-02-21T03:15:06.601Z,17.63
2019-02-21T03:17:39.757Z,16.80
2019-02-21T03:20:12.314Z,16.17
2019-02-21T03:22:44.876Z,15.97
2019-02-21T03:25:17.349Z,17.08
2019-02-21T03:27:51.443Z,15.90
2019-02-21T03:30:24.044Z,17.47
2019-02-21T03:32:56.525Z,17.50
2019-02-21T03:35:30.669Z,17.57
2019-02-21T03:38:03.219Z,16.33
2019-02-21T03:40:35.924Z,16.83
2019-02-21T03:43:08.768Z,16.27
2019-02-21T03:45:41.484Z,16.67
2019-02-21T03:48:16.378Z,17.03
2019-02-21T03:50:49.338Z,16.67
2019-02-21T03:53:28.556Z,16.67
2019-02-21T03:56:01.071Z,16.47
2019-02-21T03:58:34.389Z,17.13
2019-02-21T04:01:07.125Z,19.67
2019-02-21T04:03:40.699Z,16.90
2019-02-21T04:06:13.272Z,17.27
2019-02-21T04:08:45.986Z,16.47
2019-02-21T04:11:21.134Z,15.13
2019-02-21T04:13:55.713Z,17.48
2019-02-21T04:16:28.285Z,16.90
2019-02-21T04:19:00.868Z,17.40
2019-02-21T04:21:33.864Z,18.37
2019-02-21T04:24:06.605Z,16.50
2019-02-21T04:26:39.251Z,15.57
2019-02-21T04:29:12.138Z,17.10
2019-02-21T04:31:44.668Z,16.63
2019-02-21T04:34:17.693Z,18.13
2019-02-21T04:36:51.545Z,16.60
2019-02-21T04:39:25.376Z,17.17
2019-02-21T04:41:58.143Z,20.23
2019-02-21T04:44:30.774Z,17.60
2019-02-21T04:47:03.230Z,17.73
2019-02-21T04:49:37.549Z,18.63
2019-02-21T04:52:10.044Z,18.70
2019-02-21T04:54:42.840Z,19.13
2019-02-21T04:57:16.211Z,19.80
2019-02-21T04:59:50.211Z,19.53
2019-02-21T05:02:29.211Z,19.83
2019-02-21T05:05:03.157Z,20.40
2019-02-21T05:07:37.377Z,20.70
2019-02-21T05:10:10.291Z,19.17
2019-02-21T05:12:45.025Z,22.17
2019-02-21T05:15:16.798Z,20.77
2019-02-21T05:17:49.776Z,18.27
2019-02-21T05:20:22.186Z,21.53
2019-02-21T05:22:55.174Z,24.65
2019-02-21T05:25:28.139Z,24.10
2019-02-21T05:28:07.131Z,25.80
2019-02-21T05:30:40.452Z,23.60
2019-02-21T05:33:18.574Z,26.53
2019-02-21T05:36:00.410Z,22.83
2019-02-21T05:38:44.242Z,23.60
2019-02-21T05:41:22.522Z,24.43
2019-02-21T05:44:11.686Z,25.67
2019-02-21T05:47:03.830Z,24.23
2019-02-21T05:49:59.365Z,25.17
2019-02-21T05:52:39.686Z,24.83
2019-02-21T05:55:24.535Z,52.62
2019-02-21T05:58:17.592Z,24.90
2019-02-21T06:01:12.319Z,25.33
2019-02-21T06:03:51.439Z,26.35
2019-02-21T06:06:31.988Z,27.40
2019-02-21T06:09:16.441Z,25.47
2019-02-21T06:11:56.806Z,25.60
2019-02-21T06:14:46.418Z,25.13
2019-02-21T06:17:40.663Z,25.67
2019-02-21T06:20:46.620Z,27.75
2019-02-21T06:23:36.164Z,27.97
2019-02-21T06:26:17.551Z,29.27
2019-02-21T06:29:10.437Z,26.07
2019-02-21T06:31:58.492Z,25.90
2019-02-21T06:34:31.750Z,26.67
2019-02-21T06:37:04.959Z,29.17
2019-02-21T06:39:39.283Z,30.57
2019-02-21T06:42:11.959Z,30.97
2019-02-21T06:44:44.721Z,25.97
2019-02-21T06:47:17.325Z,25.70
2019-02-21T06:49:49.874Z,27.00
2019-02-21T06:52:23.106Z,29.53
2019-02-21T06:54:55.567Z,35.17
2019-02-21T06:57:28.523Z,36.47
2019-02-21T07:00:05.354Z,38.10
2019-02-21T07:02:38.048Z,38.80
2019-02-21T07:05:10.663Z,35.83
2019-02-21T07:07:47.506Z,34.83
2019-02-21T07:10:19.907Z,33.03
2019-02-21T07:12:54.722Z,32.70
2019-02-21T07:15:30.669Z,31.63
2019-02-21T07:18:06.648Z,31.70
2019-02-21T07:20:41.621Z,32.07
2019-02-21T07:23:15.114Z,30.73
2019-02-21T07:25:59.158Z,30.43
2019-02-21T07:28:31.941Z,33.20
2019-02-21T07:31:04.428Z,28.90
2019-02-21T07:33:37.854Z,27.63
2019-02-21T07:36:11.218Z,30.67
2019-02-21T07:38:44.156Z,28.43
2019-02-21T07:41:18.639Z,28.60
2019-02-21T07:43:52.278Z,29.33
2019-02-21T07:46:28.003Z,27.37
2019-02-21T07:49:02.135Z,28.17
2019-02-21T07:51:35.977Z,25.83
2019-02-21T07:54:09.713Z,26.63
2019-02-21T07:56:44.165Z,26.03
2019-02-21T07:59:16.726Z,25.13
2019-02-21T08:01:49.170Z,25.33
2019-02-21T08:04:24.655Z,24.60
2019-02-21T08:06:57.154Z,25.07
2019-02-21T08:09:32.595Z,24.70
2019-02-21T08:12:06.500Z,25.43
2019-02-21T08:14:43.255Z,25.70
2019-02-21T08:17:17.797Z,25.67
2019-02-21T08:19:52.862Z,25.03
2019-02-21T08:22:25.988Z,24.83
2019-02-21T08:24:58.504Z,24.80
2019-02-21T08:27:31.347Z,24.57
2019-02-21T08:30:09.667Z,25.53
2019-02-21T08:32:48.251Z,25.70
2019-02-21T08:35:20.875Z,25.33
2019-02-21T08:37:54.943Z,25.37
2019-02-21T08:40:28.957Z,24.97
2019-02-21T08:43:08.551Z,24.63
2019-02-21T08:45:41.844Z,24.27
2019-02-21T08:48:14.488Z,24.43
2019-02-21T08:50:50.665Z,23.63
2019-02-21T08:53:28.174Z,23.00
2019-02-21T08:56:04.537Z,22.83
2019-02-21T08:58:37.467Z,25.42
2019-02-21T09:01:11.282Z,23.70
2019-02-21T09:03:44.001Z,22.43
2019-02-21T09:06:19.051Z,24.33
2019-02-21T09:08:52.971Z,23.93
2019-02-21T09:11:25.607Z,24.23
2019-02-21T09:13:59.647Z,24.13
2019-02-21T09:16:33.639Z,23.60
2019-02-21T09:19:06.181Z,23.23
2019-02-21T09:21:41.079Z,24.47
2019-02-21T09:24:26.814Z,24.50
2019-02-21T09:27:09.143Z,24.43
2019-02-21T09:29:42.398Z,26.08
2019-02-21T09:32:16.096Z,23.97
2019-02-21T09:34:50.345Z,23.53
2019-02-21T09:37:27.761Z,22.27
2019-02-21T09:40:01.587Z,25.35
2019-02-21T09:42:36.330Z,24.33
2019-02-21T09:45:15.786Z,25.53
2019-02-21T09:47:49.226Z,24.20
2019-02-21T09:50:21.751Z,24.30
2019-02-21T09:52:57.848Z,24.03
2019-02-21T09:55:30.535Z,22.23
2019-02-21T09:58:03.124Z,23.00
2019-02-21T10:00:37.568Z,28.00
2019-02-21T10:03:10.994Z,23.87
2019-02-21T10:05:43.571Z,25.10
2019-02-21T10:08:16.969Z,23.30
2019-02-21T10:10:52.776Z,25.00
2019-02-21T10:13:28.618Z,26.93
2019-02-21T10:16:05.053Z,24.87
2019-02-21T10:18:38.332Z,27.53
2019-02-21T10:21:10.875Z,25.20
2019-02-21T10:23:46.562Z,25.17
2019-02-21T10:26:19.192Z,25.60
2019-02-21T10:28:53.364Z,25.37
2019-02-21T10:31:26.723Z,25.40
2019-02-21T10:34:06.702Z,26.00
2019-02-21T10:36:42.342Z,26.93
2019-02-21T10:39:17.165Z,27.13
2019-02-21T10:41:51.498Z,26.70
2019-02-21T10:44:24.153Z,27.27
2019-02-21T10:46:58.011Z,25.73
2019-02-21T10:49:31.309Z,26.00
2019-02-21T10:52:03.913Z,28.70
2019-02-21T10:54:48.257Z,27.40
2019-02-21T10:57:20.782Z,27.10
2019-02-21T10:59:53.379Z,26.70
2019-02-21T11:02:27.811Z,28.23
2019-02-21T11:05:01.953Z,27.10
2019-02-21T11:07:35.210Z,26.90
2019-02-21T11:10:09.599Z,26.20
2019-02-21T11:12:42.901Z,26.50
2019-02-21T11:15:17.422Z,27.13
2019-02-21T11:17:51.540Z,28.45
2019-02-21T11:20:24.438Z,25.73
2019-02-21T11:22:57.112Z,26.83
2019-02-21T11:25:32.581Z,27.17
2019-02-21T11:28:08.716Z,27.23
2019-02-21T11:30:52.283Z,26.93
2019-02-21T11:33:26.952Z,29.85
2019-02-21T11:36:00.446Z,28.37
2019-02-21T11:38:34.440Z,26.70
2019-02-21T11:41:08.270Z,27.77
2019-02-21T11:43:41.605Z,28.30
2019-02-21T11:46:14.844Z,28.47
2019-02-21T11:48:47.825Z,26.93
2019-02-21T11:51:20.359Z,25.90
2019-02-21T11:53:54.351Z,29.20
2019-02-21T11:56:28.744Z,28.67
2019-02-21T11:59:03.868Z,26.47
2019-02-21T12:01:39.638Z,27.48
2019-02-21T12:04:16.145Z,24.60
2019-02-21T12:06:48.841Z,25.00
2019-02-21T12:09:21.851Z,24.70
2019-02-21T12:11:57.030Z,22.43
2019-02-21T12:14:31.771Z,24.23
2019-02-21T12:17:06.266Z,20.20
2019-02-21T12:19:42.653Z,20.13
2019-02-21T12:22:19.038Z,18.73
2019-02-21T12:24:54.163Z,22.65
2019-02-21T12:27:27.886Z,19.60
2019-02-21T12:30:00.612Z,20.23
2019-02-21T12:32:35.126Z,19.83
2019-02-21T12:35:12.551Z,19.60
2019-02-21T12:37:45.387Z,18.40
2019-02-21T12:40:18.799Z,19.27
2019-02-21T12:42:53.829Z,18.23
2019-02-21T12:45:29.864Z,19.70
2019-02-21T12:48:04.395Z,17.97
2019-02-21T12:50:44.288Z,18.07
2019-02-21T12:53:21.693Z,17.77
2019-02-21T12:56:11.054Z,17.70
2019-02-21T12:58:46.679Z,18.40
2019-02-21T13:01:19.203Z,16.40
2019-02-21T13:03:52.229Z,15.70
2019-02-21T13:06:26.580Z,17.30
2019-02-21T13:09:00.231Z,16.47
2019-02-21T13:11:35.545Z,14.60
2019-02-21T13:14:11.542Z,13.60
2019-02-21T13:16:46.670Z,14.13
2019-02-21T13:19:21.589Z,14.53
2019-02-21T13:21:57.422Z,16.13
2019-02-21T13:24:30.638Z,16.07
2019-02-21T13:27:06.950Z,15.17
2019-02-21T13:29:41.750Z,15.57
2019-02-21T13:32:16.824Z,14.30
2019-02-21T13:34:50.469Z,14.33
2019-02-21T13:37:29.095Z,13.93
2019-02-21T13:40:05.852Z,15.13
2019-02-21T13:42:40.650Z,15.30
2019-02-21T13:45:17.809Z,14.10
2019-02-21T13:47:52.823Z,14.13
2019-02-21T13:50:31.161Z,13.83
2019-02-21T13:53:03.931Z,15.43
2019-02-21T13:55:39.111Z,14.27
2019-02-21T13:58:12.716Z,13.43
2019-02-21T14:00:46.166Z,13.60
2019-02-21T14:03:19.289Z,13.67
2019-02-21T14:06:02.997Z,12.90
2019-02-21T14:08:37.302Z,12.80
2019-02-21T14:11:10.537Z,13.10
2019-02-21T14:13:43.009Z,11.70
2019-02-21T14:16:18.181Z,8.13
2019-02-21T14:18:51.550Z,8.33
2019-02-21T14:21:25.588Z,8.77
2019-02-21T14:24:00.112Z,9.17
2019-02-21T14:26:33.020Z,10.43
2019-02-21T14:29:06.631Z,9.97
2019-02-21T14:31:39.279Z,11.37
2019-02-21T14:34:12.681Z,12.37
2019-02-21T14:36:47.237Z,11.87
2019-02-21T14:39:20.880Z,12.13
2019-02-21T14:41:54.601Z,12.87
2019-02-21T14:44:27.321Z,14.77
2019-02-21T14:47:00.583Z,16.07
2019-02-21T14:49:34.124Z,16.20
2019-02-21T14:52:09.761Z,16.50
2019-02-21T14:54:49.935Z,16.60
2019-02-21T14:57:23.596Z,16.23
2019-02-21T14:59:59.832Z,16.27
2019-02-21T15:02:37.732Z,15.73
2019-02-21T15:05:52.483Z,16.53
2019-02-21T15:08:27.359Z,16.77
2019-02-21T15:11:00.069Z,16.93
2019-02-21T15:13:42.652Z,16.47
2019-02-21T15:16:16.996Z,16.67
2019-02-21T15:18:55.356Z,15.90
2019-02-21T15:21:33.995Z,15.80
2019-02-21T15:24:07.634Z,15.87
2019-02-21T15:26:41.799Z,15.67
2019-02-21T15:29:15.570Z,17.90
2019-02-21T15:31:50.387Z,16.63
2019-02-21T15:34:27.179Z,15.93
2019-02-21T15:36:59.768Z,16.33
2019-02-21T15:39:35.297Z,18.13
2019-02-21T15:42:10.498Z,18.47
2019-02-21T15:44:45.265Z,17.53
2019-02-21T15:47:19.592Z,18.07
2019-02-21T15:49:52.458Z,17.70
2019-02-21T15:52:28.012Z,18.23
2019-02-21T15:55:11.869Z,18.23
2019-02-21T15:57:47.319Z,17.87
2019-02-21T16:00:21.832Z,19.93
2019-02-21T16:02:57.346Z,18.73
2019-02-21T16:05:31.687Z,19.17
2019-02-21T16:08:06.345Z,19.63
2019-02-21T16:10:46.318Z,18.77
2019-02-21T16:13:22.662Z,20.12
2019-02-21T16:15:58.609Z,18.63
2019-02-21T16:18:32.553Z,18.90
2019-02-21T16:21:09.108Z,18.43
2019-02-21T16:23:48.655Z,20.40
2019-02-21T16:26:24.661Z,19.20
2019-02-21T16:28:58.845Z,18.60
2019-02-21T16:31:31.727Z,19.40
2019-02-21T16:34:09.172Z,21.13
2019-02-21T16:36:43.640Z,21.10
2019-02-21T16:39:18.483Z,21.33
2019-02-21T16:41:52.972Z,20.87
2019-02-21T16:44:30.422Z,19.97
2019-02-21T16:47:05.766Z,22.27
2019-02-21T16:49:44.005Z,21.17
2019-02-21T16:52:18.278Z,20.20
2019-02-21T16:54:51.575Z,19.80
2019-02-21T16:57:25.556Z,21.53
2019-02-21T16:59:58.844Z,22.00
2019-02-21T17:02:34.359Z,23.73
2019-02-21T17:05:08.785Z,23.73
2019-02-21T17:07:44.697Z,22.27
2019-02-21T17:10:21.088Z,21.77
2019-02-21T17:12:55.485Z,25.30
2019-02-21T17:15:29.363Z,20.50
2019-02-21T17:18:03.731Z,20.42
2019-02-21T17:20:39.835Z,19.50
2019-02-21T17:23:22.529Z,21.05
2019-02-21T17:26:00.688Z,19.43
2019-02-21T17:28:41.510Z,19.40
2019-02-21T17:31:17.457Z,20.93
2019-02-21T17:33:53.399Z,20.10
2019-02-21T17:36:32.630Z,21.57
2019-02-21T17:39:10.559Z,21.30
2019-02-21T17:41:53.964Z,21.60
2019-02-21T17:44:31.748Z,20.73
2019-02-21T17:47:06.479Z,20.27
2019-02-21T17:49:44.641Z,20.40
2019-02-21T17:52:21.244Z,19.87
2019-02-21T17:54:55.563Z,23.48
2019-02-21T17:57:30.849Z,23.13
2019-02-21T18:00:17.116Z,22.50
2019-02-21T18:02:50.099Z,21.27
2019-02-21T18:05:22.845Z,21.13
2019-02-21T18:07:57.167Z,21.57
2019-02-21T18:10:30.393Z,23.33
2019-02-21T18:13:10.831Z,21.23
2019-02-21T18:15:47.270Z,23.87
2019-02-21T18:18:19.869Z,24.85
2019-02-21T18:20:57.070Z,22.60
2019-02-21T18:23:29.762Z,21.70
2019-02-21T18:26:17.100Z,21.60
2019-02-21T18:28:52.400Z,22.87
2019-02-21T18:31:26.610Z,25.42
2019-02-21T18:34:02.195Z,23.87
2019-02-21T18:36:42.071Z,23.10
2019-02-21T18:39:17.906Z,23.57
2019-02-21T18:41:51.999Z,26.00
2019-02-21T18:44:25.167Z,25.87
2019-02-21T18:47:00.527Z,25.50
2019-02-21T18:49:38.769Z,26.53
2019-02-21T18:52:19.657Z,27.00
2019-02-21T18:54:56.545Z,31.00
2019-02-21T18:57:29.958Z,27.90
2019-02-21T19:00:04.776Z,28.57
2019-02-21T19:02:37.457Z,28.57
2019-02-21T19:05:10.271Z,29.00
2019-02-21T19:07:43.019Z,30.03
2019-02-21T19:10:18.813Z,29.90
2019-02-21T19:12:53.793Z,29.60
2019-02-21T19:15:32.865Z,31.50
2019-02-21T19:18:11.046Z,32.10
2019-02-21T19:20:44.641Z,30.67
2019-02-21T19:23:20.168Z,32.03
2019-02-21T19:25:55.445Z,30.03
2019-02-21T19:28:29.408Z,32.53
2019-02-21T19:31:13.085Z,33.60
2019-02-21T19:33:49.157Z,36.20
2019-02-21T19:36:22.859Z,32.00
2019-02-21T19:38:57.934Z,31.50
2019-02-21T19:41:31.479Z,33.70
2019-02-21T19:44:09.179Z,31.60
2019-02-21T19:46:44.196Z,32.87
2019-02-21T19:49:20.174Z,33.03
2019-02-21T19:51:54.267Z,36.63
2019-02-21T19:54:26.975Z,32.87
2019-02-21T19:57:10.278Z,39.50
2019-02-21T19:59:53.905Z,33.03
2019-02-21T20:02:30.097Z,34.63
2019-02-21T20:05:06.636Z,35.33
2019-02-21T20:07:40.890Z,44.83
2019-02-21T20:10:19.030Z,37.60
2019-02-21T20:12:58.361Z,38.10
2019-02-21T20:15:34.912Z,36.77
2019-02-21T20:18:12.027Z,38.17
2019-02-21T20:20:46.809Z,38.37
2019-02-21T20:23:32.386Z,36.50
2019-02-21T20:26:17.712Z,35.93
2019-02-21T20:28:55.067Z,41.27
2019-02-21T20:31:29.814Z,39.53
2019-02-21T20:34:04.857Z,38.10
2019-02-21T20:36:50.468Z,34.67
2019-02-21T20:39:26.577Z,37.77
2019-02-21T20:42:01.164Z,33.70
2019-02-21T20:44:36.211Z,34.60
2019-02-21T20:47:10.791Z,47.35
2019-02-21T20:49:46.388Z,40.05
2019-02-21T20:52:21.341Z,34.10
2019-02-21T20:54:59.470Z,31.73
2019-02-21T20:57:35.832Z,31.33
2019-02-21T21:00:20.358Z,30.03
2019-02-21T21:02:54.559Z,31.43
2019-02-21T21:05:28.726Z,31.87
2019-02-21T21:08:08.619Z,32.93
2019-02-21T21:10:43.027Z,35.72
2019-02-21T21:13:17.776Z,33.40
2019-02-21T21:15:53.559Z,32.70
2019-02-21T21:18:28.361Z,34.60
2019-02-21T21:21:04.674Z,35.40
2019-02-21T21:23:37.328Z,36.03
2019-02-21T21:26:12.863Z,38.07
2019-02-21T21:28:46.983Z,43.83
2019-02-21T21:31:25.204Z,39.97
2019-02-21T21:34:02.760Z,41.57
2019-02-21T21:36:36.038Z,43.07
2019-02-21T21:39:12.677Z,45.80
2019-02-21T21:41:48.720Z,44.80
2019-02-21T21:44:23.133Z,45.40
2019-02-21T21:47:02.612Z,46.97
2019-02-21T21:49:39.821Z,50.03
2019-02-21T21:52:13.058Z,51.43
2019-02-21T21:54:51.053Z,50.93
2019-02-21T21:57:29.008Z,53.50
2019-02-21T22:00:06.794Z,66.40
2019-02-21T22:02:41.675Z,58.33
2019-02-21T22:05:14.362Z,61.10
2019-02-21T22:07:49.171Z,62.73
2019-02-21T22:10:22.943Z,62.87
2019-02-21T22:13:03.588Z,64.80
2019-02-21T22:15:37.831Z,66.43
2019-02-21T22:18:13.485Z,63.97
2019-02-21T22:20:46.169Z,63.13
2019-02-21T22:23:20.739Z,64.97
2019-02-21T22:25:59.158Z,61.63
2019-02-21T22:28:33.451Z,60.57
2019-02-21T22:31:17.730Z,59.67
2019-02-21T22:33:50.596Z,62.63
2019-02-21T22:36:27.210Z,61.37
2019-02-21T22:39:02.170Z,60.27
2019-02-21T22:41:40.243Z,75.20
2019-02-21T22:44:14.418Z,70.53
2019-02-21T22:46:50.337Z,70.00
2019-02-21T22:49:25.589Z,54.63
2019-02-21T22:52:02.208Z,57.87
2019-02-21T22:54:37.805Z,54.57
2019-02-21T22:57:10.369Z,55.07
2019-02-21T22:59:46.263Z,57.20
2019-02-21T23:02:21.118Z,58.43
2019-02-21T23:05:31.209Z,54.80
2019-02-21T23:08:51.338Z,53.97
2019-02-21T23:11:24.423Z,56.20
2019-02-21T23:14:00.232Z,56.77
2019-02-21T23:16:32.775Z,59.13
2019-02-21T23:19:07.738Z,56.63
2019-02-21T23:21:42.637Z,58.37
2019-02-21T23:24:17.327Z,73.80
2019-02-21T23:26:52.405Z,61.23
2019-02-21T23:29:26.913Z,61.90
2019-02-21T23:31:59.782Z,59.80
2019-02-21T23:34:37.509Z,61.60
2019-02-21T23:37:11.218Z,59.37
2019-02-21T23:39:44.180Z,60.57
2019-02-21T23:42:18.465Z,58.50
2019-02-21T23:44:51.687Z,59.73
2019-02-21T23:47:24.244Z,62.60
2019-02-21T23:49:58.535Z,64.90
2019-02-21T23:52:31.722Z,66.00
2019-02-21T23:55:04.800Z,64.23
2019-02-21T23:57:38.859Z,69.13
